createdAt,value
2018-03-17T00:02:10.781Z,2.60
2018-03-17T00:04:37.376Z,2.50
2018-03-17T00:07:04.575Z,2.50
2018-03-17T00:09:31.033Z,2.50
2018-03-17T00:11:57.467Z,2.60
2018-03-17T00:14:24.021Z,2.50
2018-03-17T00:16:51.284Z,2.50
2018-03-17T00:19:18.741Z,2.50
2018-03-17T00:21:45.170Z,2.50
2018-03-17T00:24:13.942Z,2.50
2018-03-17T00:26:41.146Z,2.50
2018-03-17T00:29:07.590Z,2.50
2018-03-17T00:31:34.052Z,2.40
2018-03-17T00:34:00.888Z,2.40
2018-03-17T00:36:27.294Z,2.40
2018-03-17T00:38:53.755Z,2.40
2018-03-17T00:41:20.323Z,2.30
2018-03-17T00:43:47.531Z,2.40
2018-03-17T00:46:13.991Z,2.40
2018-03-17T00:48:40.440Z,2.40
2018-03-17T00:51:06.882Z,2.40
2018-03-17T00:53:33.415Z,2.30
2018-03-17T00:56:00.044Z,2.30
2018-03-17T00:58:26.431Z,2.30
2018-03-17T01:00:53.145Z,2.40
2018-03-17T01:03:19.559Z,2.30
2018-03-17T01:05:53.004Z,2.30
2018-03-17T01:08:19.472Z,2.30
2018-03-17T01:10:46.008Z,2.30
2018-03-17T01:13:12.448Z,2.30
2018-03-17T01:15:38.941Z,2.30
2018-03-17T01:18:05.407Z,2.30
2018-03-17T01:20:31.857Z,2.30
2018-03-17T01:25:31.400Z,2.30
2018-03-17T01:27:57.845Z,2.30
2018-03-17T01:30:25.233Z,2.30
2018-03-17T01:32:52.571Z,2.30
2018-03-17T01:35:19.153Z,2.30
2018-03-17T01:37:45.669Z,2.30
2018-03-17T01:40:12.157Z,2.30
2018-03-17T01:42:38.619Z,2.40
2018-03-17T01:45:06.140Z,2.40
2018-03-17T01:47:33.280Z,2.40
2018-03-17T01:50:00.454Z,2.30
2018-03-17T01:52:26.874Z,2.30
2018-03-17T01:54:54.046Z,2.30
2018-03-17T01:57:20.495Z,2.30
2018-03-17T01:59:47.891Z,2.30
2018-03-17T02:02:14.402Z,2.30
2018-03-17T02:04:40.930Z,2.40
2018-03-17T02:07:08.411Z,2.40
2018-03-17T02:09:35.666Z,2.40
2018-03-17T02:12:02.977Z,2.40
2018-03-17T02:14:29.395Z,2.40
2018-03-17T02:16:55.803Z,2.40
2018-03-17T02:19:23.379Z,2.40
2018-03-17T02:21:49.812Z,2.50
2018-03-17T02:24:17.170Z,2.50
2018-03-17T02:26:43.618Z,2.50
2018-03-17T02:29:10.055Z,2.50
2018-03-17T02:31:36.531Z,2.50
2018-03-17T02:34:03.110Z,2.50
2018-03-17T02:36:44.776Z,2.50
2018-03-17T02:39:12.011Z,2.40
2018-03-17T02:41:39.221Z,2.40
2018-03-17T02:44:05.626Z,2.30
2018-03-17T02:46:32.869Z,2.20
2018-03-17T02:48:59.385Z,2.20
2018-03-17T02:51:25.829Z,2.20
2018-03-17T02:53:52.450Z,2.10
2018-03-17T02:56:19.632Z,2.10
2018-03-17T02:58:46.042Z,2.10
2018-03-17T03:01:13.281Z,2.00
2018-03-17T03:03:41.211Z,1.90
2018-03-17T03:06:07.627Z,1.90
2018-03-17T03:08:34.146Z,1.90
2018-03-17T03:11:00.576Z,1.80
2018-03-17T03:13:27.056Z,1.80
2018-03-17T03:15:53.496Z,1.80
2018-03-17T03:18:19.976Z,1.80
2018-03-17T03:20:47.307Z,1.70
2018-03-17T03:23:13.806Z,1.80
2018-03-17T03:25:40.272Z,1.60
2018-03-17T03:28:07.528Z,1.50
2018-03-17T03:30:34.294Z,1.50
2018-03-17T03:33:01.759Z,1.50
2018-03-17T03:35:28.921Z,1.40
2018-03-17T03:37:56.433Z,1.40
2018-03-17T03:40:22.861Z,1.40
2018-03-17T03:42:50.324Z,1.30
2018-03-17T03:45:16.755Z,1.40
2018-03-17T03:47:43.962Z,1.40
2018-03-17T03:50:10.504Z,1.40
2018-03-17T03:52:37.576Z,1.30
2018-03-17T03:55:04.762Z,1.40
2018-03-17T03:57:31.992Z,1.40
2018-03-17T03:59:59.654Z,1.40
2018-03-17T04:02:26.886Z,1.30
2018-03-17T04:04:54.240Z,1.40
2018-03-17T04:07:20.664Z,1.40
2018-03-17T04:09:47.212Z,1.40
2018-03-17T04:12:13.768Z,1.40
2018-03-17T04:14:41.975Z,1.40
2018-03-17T04:17:09.117Z,1.40
2018-03-17T04:19:35.551Z,1.30
2018-03-17T04:22:02.111Z,1.40
2018-03-17T04:24:29.004Z,1.40
2018-03-17T04:26:56.154Z,1.40
2018-03-17T04:29:22.788Z,1.40
2018-03-17T04:31:49.254Z,1.40
2018-03-17T04:34:15.726Z,1.50
2018-03-17T04:36:42.235Z,1.40
2018-03-17T04:39:08.728Z,1.40
2018-03-17T04:41:35.261Z,1.40
2018-03-17T04:44:01.703Z,1.40
2018-03-17T04:46:29.581Z,1.40
2018-03-17T04:48:56.920Z,1.40
2018-03-17T04:51:25.108Z,1.40
2018-03-17T04:53:51.578Z,1.40
2018-03-17T04:56:18.058Z,1.40
2018-03-17T04:58:44.568Z,1.40
2018-03-17T05:01:11.026Z,1.40
2018-03-17T05:03:37.434Z,1.40
2018-03-17T05:06:03.945Z,1.40
2018-03-17T05:08:30.363Z,1.40
2018-03-17T05:10:56.808Z,1.30
2018-03-17T05:13:23.255Z,1.30
2018-03-17T05:15:49.676Z,1.30
2018-03-17T05:18:16.159Z,1.30
2018-03-17T05:20:42.623Z,1.30
2018-03-17T05:23:08.990Z,1.30
2018-03-17T05:25:36.895Z,1.20
2018-03-17T05:28:04.084Z,1.20
2018-03-17T05:30:30.504Z,1.20
2018-03-17T05:32:57.282Z,1.30
2018-03-17T05:35:23.751Z,1.30
2018-03-17T05:37:51.199Z,1.30
2018-03-17T05:40:17.739Z,1.20
2018-03-17T05:42:44.256Z,1.20
2018-03-17T05:45:10.805Z,1.20
2018-03-17T05:47:37.423Z,1.20
2018-03-17T05:50:03.941Z,1.20
2018-03-17T05:52:30.433Z,1.20
2018-03-17T05:54:57.718Z,1.10
2018-03-17T05:57:24.410Z,1.10
2018-03-17T05:59:51.650Z,1.20
2018-03-17T06:02:18.198Z,1.10
2018-03-17T06:04:46.236Z,1.10
2018-03-17T06:07:12.659Z,1.10
2018-03-17T06:09:39.235Z,1.00
2018-03-17T06:12:05.651Z,1.00
2018-03-17T06:14:32.101Z,0.90
2018-03-17T06:16:59.327Z,0.80
2018-03-17T06:19:26.742Z,0.80
2018-03-17T06:21:53.191Z,0.80
2018-03-17T06:24:19.641Z,0.70
2018-03-17T06:26:46.213Z,0.70
2018-03-17T06:29:12.680Z,0.60
2018-03-17T06:31:39.113Z,0.60
2018-03-17T06:34:06.408Z,0.80
2018-03-17T06:36:33.701Z,0.90
2018-03-17T06:39:00.161Z,0.90
2018-03-17T06:41:26.629Z,1.00
2018-03-17T06:43:53.043Z,1.10
2018-03-17T06:46:19.506Z,1.10
2018-03-17T06:48:46.165Z,1.20
2018-03-17T06:51:13.306Z,1.30
2018-03-17T06:53:39.843Z,1.30
2018-03-17T06:56:06.424Z,1.40
2018-03-17T06:58:32.840Z,1.50
2018-03-17T07:00:59.350Z,1.50
2018-03-17T07:03:26.388Z,1.50
2018-03-17T07:05:54.580Z,1.60
2018-03-17T07:08:21.828Z,1.50
2018-03-17T07:10:49.039Z,1.50
2018-03-17T07:13:16.233Z,1.50
2018-03-17T07:15:43.381Z,1.50
2018-03-17T07:18:10.904Z,1.50
2018-03-17T07:20:37.364Z,1.50
2018-03-17T07:23:03.736Z,1.50
2018-03-17T07:25:30.154Z,1.40
2018-03-17T07:27:56.595Z,1.40
2018-03-17T07:30:23.031Z,1.50
2018-03-17T07:32:50.483Z,1.50
2018-03-17T07:35:16.962Z,1.50
2018-03-17T07:37:43.366Z,1.60
2018-03-17T07:40:10.786Z,1.60
2018-03-17T07:42:37.556Z,1.60
2018-03-17T07:45:04.035Z,1.60
2018-03-17T07:47:30.544Z,1.60
2018-03-17T07:49:56.961Z,1.60
2018-03-17T07:52:23.418Z,1.60
2018-03-17T07:54:49.983Z,1.80
2018-03-17T07:57:16.458Z,1.60
2018-03-17T07:59:42.801Z,1.40
2018-03-17T08:02:09.310Z,1.30
2018-03-17T08:04:36.681Z,1.20
2018-03-17T08:07:03.262Z,1.20
2018-03-17T08:09:30.547Z,1.20
2018-03-17T08:11:57.128Z,1.20
2018-03-17T08:14:23.574Z,1.30
2018-03-17T08:16:50.062Z,1.30
2018-03-17T08:19:16.516Z,1.30
2018-03-17T08:21:43.005Z,1.40
2018-03-17T08:24:09.508Z,1.40
2018-03-17T08:26:36.914Z,1.30
2018-03-17T08:29:03.346Z,1.30
2018-03-17T08:31:29.849Z,1.30
2018-03-17T08:33:56.365Z,1.20
2018-03-17T08:36:22.773Z,1.20
2018-03-17T08:38:49.292Z,1.20
2018-03-17T08:41:15.807Z,1.20
2018-03-17T08:43:43.028Z,1.20
2018-03-17T08:46:09.561Z,1.20
2018-03-17T08:48:36.554Z,1.30
2018-03-17T08:51:02.928Z,1.30
2018-03-17T08:53:30.221Z,1.30
2018-03-17T08:55:57.067Z,1.30
2018-03-17T08:58:23.593Z,1.40
2018-03-17T09:00:50.046Z,1.50
2018-03-17T09:03:17.173Z,1.60
2018-03-17T09:05:43.551Z,1.60
2018-03-17T09:08:10.000Z,1.60
2018-03-17T09:10:36.466Z,1.60
2018-03-17T09:13:03.631Z,1.70
2018-03-17T09:15:30.169Z,1.60
2018-03-17T09:17:56.560Z,1.60
2018-03-17T09:20:23.125Z,1.60
2018-03-17T09:22:50.717Z,1.60
2018-03-17T09:25:18.145Z,1.70
2018-03-17T09:27:45.496Z,1.60
2018-03-17T09:30:11.946Z,1.60
2018-03-17T09:32:39.081Z,1.50
2018-03-17T09:35:05.596Z,1.50
2018-03-17T09:37:32.118Z,1.60
2018-03-17T09:39:58.585Z,1.50
2018-03-17T09:42:25.094Z,1.50
2018-03-17T09:44:52.347Z,1.50
2018-03-17T09:47:18.904Z,1.40
2018-03-17T09:49:45.308Z,1.30
2018-03-17T09:52:11.937Z,1.30
2018-03-17T09:54:39.314Z,1.40
2018-03-17T09:57:05.952Z,1.40
2018-03-17T09:59:32.388Z,1.30
2018-03-17T10:01:58.789Z,1.20
2018-03-17T10:04:25.228Z,1.20
2018-03-17T10:06:51.967Z,1.10
2018-03-17T10:09:19.314Z,1.10
2018-03-17T10:11:47.547Z,1.20
2018-03-17T10:14:15.583Z,1.30
2018-03-17T10:16:42.073Z,1.30
2018-03-17T10:19:08.653Z,1.40
2018-03-17T10:21:35.110Z,1.40
2018-03-17T10:24:01.528Z,1.50
2018-03-17T10:26:27.976Z,1.50
2018-03-17T10:28:54.436Z,1.40
2018-03-17T10:31:21.028Z,1.40
2018-03-17T10:33:48.270Z,1.30
2018-03-17T10:36:14.775Z,1.30
2018-03-17T10:38:42.214Z,1.30
2018-03-17T10:41:08.755Z,1.40
2018-03-17T10:43:35.959Z,1.40
2018-03-17T10:46:02.379Z,1.30
2018-03-17T10:48:28.807Z,1.40
2018-03-17T10:50:55.226Z,1.50
2018-03-17T10:53:21.712Z,1.50
2018-03-17T10:55:48.880Z,1.60
2018-03-17T10:58:16.086Z,1.60
2018-03-17T11:00:46.259Z,1.60
2018-03-17T11:03:12.756Z,1.60
2018-03-17T11:05:39.334Z,1.60
2018-03-17T11:08:05.918Z,1.70
2018-03-17T11:10:32.376Z,1.70
2018-03-17T11:12:59.591Z,1.60
2018-03-17T11:15:26.141Z,1.60
2018-03-17T11:17:52.593Z,1.60
2018-03-17T11:20:19.069Z,1.70
2018-03-17T11:22:45.481Z,1.70
2018-03-17T11:25:12.095Z,1.80
2018-03-17T11:27:39.519Z,1.70
2018-03-17T11:30:07.524Z,1.60
2018-03-17T11:32:33.988Z,1.60
2018-03-17T11:35:01.158Z,1.50
2018-03-17T11:37:27.742Z,1.50
2018-03-17T11:39:54.276Z,1.50
2018-03-17T11:42:20.758Z,1.40
2018-03-17T11:44:47.360Z,1.40
2018-03-17T11:50:23.530Z,1.30
2018-03-17T11:52:50.121Z,1.20
2018-03-17T11:55:17.307Z,1.20
2018-03-17T11:57:44.043Z,1.20
2018-03-17T12:00:10.481Z,1.30
2018-03-17T12:02:36.923Z,1.20
2018-03-17T12:05:03.376Z,1.20
2018-03-17T12:07:29.813Z,1.30
2018-03-17T12:09:56.193Z,1.30
2018-03-17T12:12:23.374Z,1.30
2018-03-17T12:14:49.794Z,1.30
2018-03-17T12:17:16.298Z,1.30
2018-03-17T12:19:42.758Z,1.20
2018-03-17T12:22:09.195Z,1.30
2018-03-17T12:24:35.901Z,1.20
2018-03-17T12:27:02.481Z,1.10
2018-03-17T12:29:28.943Z,1.10
2018-03-17T12:31:55.379Z,1.10
2018-03-17T12:34:21.919Z,1.10
2018-03-17T12:36:48.506Z,1.10
2018-03-17T12:39:15.008Z,1.10
2018-03-17T12:41:42.272Z,1.00
2018-03-17T12:44:08.783Z,1.00
2018-03-17T12:46:35.216Z,1.00
2018-03-17T12:49:02.891Z,1.00
2018-03-17T12:51:30.054Z,1.10
2018-03-17T12:53:57.231Z,1.00
2018-03-17T12:56:23.758Z,1.00
2018-03-17T12:58:50.174Z,0.90
2018-03-17T13:01:17.423Z,0.90
2018-03-17T13:03:43.953Z,0.90
2018-03-17T13:06:10.366Z,1.00
2018-03-17T13:08:36.774Z,1.00
2018-03-17T13:11:03.194Z,1.00
2018-03-17T13:13:30.316Z,1.10
2018-03-17T13:15:56.843Z,1.00
2018-03-17T13:18:23.329Z,0.90
2018-03-17T13:20:49.783Z,0.80
2018-03-17T13:23:16.256Z,0.80
2018-03-17T13:25:42.739Z,0.80
2018-03-17T13:28:27.130Z,0.90
2018-03-17T13:30:54.311Z,1.00
2018-03-17T13:33:35.751Z,1.00
2018-03-17T13:36:14.576Z,1.10
2018-03-17T13:38:41.000Z,1.10
2018-03-17T13:41:08.194Z,1.10
2018-03-17T13:43:34.782Z,1.00
2018-03-17T13:46:02.150Z,1.00
2018-03-17T13:48:29.348Z,0.90
2018-03-17T13:50:55.941Z,0.90
2018-03-17T13:53:23.878Z,0.70
2018-03-17T13:55:50.339Z,0.70
2018-03-17T13:58:16.769Z,0.80
2018-03-17T14:00:43.292Z,0.80
2018-03-17T14:03:09.944Z,0.80
2018-03-17T14:05:36.422Z,0.90
2018-03-17T14:08:03.112Z,0.90
2018-03-17T14:10:30.368Z,1.00
2018-03-17T14:12:57.577Z,1.00
2018-03-17T14:15:24.123Z,1.00
2018-03-17T14:17:50.798Z,0.90
2018-03-17T14:20:17.444Z,0.90
2018-03-17T14:22:43.986Z,0.80
2018-03-17T14:25:10.503Z,0.70
2018-03-17T14:27:37.039Z,0.60
2018-03-17T14:30:05.115Z,0.60
2018-03-17T14:32:31.537Z,0.60
2018-03-17T14:34:57.971Z,0.60
2018-03-17T14:37:24.496Z,0.60
2018-03-17T14:39:51.665Z,0.60
2018-03-17T14:42:18.147Z,0.60
2018-03-17T14:44:44.580Z,0.60
2018-03-17T14:47:11.039Z,0.60
2018-03-17T14:49:37.473Z,0.40
2018-03-17T14:52:04.211Z,0.40
2018-03-17T14:54:30.641Z,0.40
2018-03-17T14:56:57.070Z,0.40
2018-03-17T14:59:23.527Z,0.40
2018-03-17T15:01:50.071Z,0.40
2018-03-17T15:04:17.299Z,0.40
2018-03-17T15:06:44.676Z,0.40
2018-03-17T15:09:11.331Z,0.40
2018-03-17T15:11:37.812Z,0.40
2018-03-17T15:14:04.270Z,0.40
2018-03-17T15:16:30.712Z,0.40
2018-03-17T15:18:57.230Z,0.30
2018-03-17T15:21:23.669Z,0.40
2018-03-17T15:23:50.111Z,0.40
2018-03-17T15:26:16.629Z,0.40
2018-03-17T15:28:43.061Z,0.40
2018-03-17T15:31:09.534Z,0.50
2018-03-17T15:33:36.040Z,0.50
2018-03-17T15:36:02.461Z,0.40
2018-03-17T15:38:28.902Z,0.40
2018-03-17T15:40:55.464Z,0.40
2018-03-17T15:43:21.879Z,0.30
2018-03-17T15:45:49.051Z,0.30
2018-03-17T15:48:16.617Z,0.30
2018-03-17T15:50:43.012Z,0.30
2018-03-17T15:53:09.419Z,0.20
2018-03-17T15:55:35.908Z,0.10
2018-03-17T15:58:03.211Z,0.10
2018-03-17T16:00:29.658Z,0.00
2018-03-17T16:02:56.179Z,0.00
2018-03-17T16:05:22.712Z,0.10
2018-03-17T16:07:49.164Z,0.10
2018-03-17T16:10:15.646Z,0.10
2018-03-17T16:12:42.841Z,0.20
2018-03-17T16:15:09.819Z,0.20
2018-03-17T16:17:36.280Z,0.30
2018-03-17T16:20:03.592Z,0.30
2018-03-17T16:22:30.039Z,0.30
2018-03-17T16:24:56.482Z,0.20
2018-03-17T16:27:23.705Z,0.30
2018-03-17T16:29:50.247Z,0.30
2018-03-17T16:32:17.549Z,0.30
2018-03-17T16:34:44.049Z,0.20
2018-03-17T16:37:10.785Z,0.30
2018-03-17T16:39:38.014Z,0.30
2018-03-17T16:42:04.596Z,0.30
2018-03-17T16:44:31.024Z,0.30
2018-03-17T16:46:58.366Z,0.10
2018-03-17T16:49:25.582Z,0.10
2018-03-17T16:51:52.021Z,0.00
2018-03-17T16:54:18.491Z,0.10
2018-03-17T16:56:45.675Z,0.00
2018-03-17T16:59:12.139Z,0.00
2018-03-17T17:01:38.771Z,0.00
2018-03-17T17:04:05.640Z,0.00
2018-03-17T17:06:32.271Z,0.00
2018-03-17T17:08:58.988Z,0.00
2018-03-17T17:11:26.610Z,0.00
2018-03-17T17:13:53.553Z,-0.10
2018-03-17T17:16:20.190Z,-0.10
2018-03-17T17:18:46.774Z,0.00
2018-03-17T17:21:14.620Z,-0.10
2018-03-17T17:23:41.210Z,-0.10
2018-03-17T17:26:07.740Z,-0.10
2018-03-17T17:28:34.203Z,-0.10
2018-03-17T17:31:00.656Z,-0.10
2018-03-17T17:33:27.157Z,-0.20
2018-03-17T17:35:54.470Z,-0.30
2018-03-17T17:38:21.037Z,-0.40
2018-03-17T17:40:48.259Z,-0.40
2018-03-17T17:43:16.255Z,-0.40
2018-03-17T17:45:42.795Z,-0.40
2018-03-17T17:48:10.120Z,-0.50
2018-03-17T17:50:36.780Z,-0.50
2018-03-17T17:53:03.988Z,-0.40
2018-03-17T17:55:30.418Z,-0.40
2018-03-17T17:57:56.832Z,-0.40
2018-03-17T18:00:23.553Z,-0.40
2018-03-17T18:02:50.178Z,-0.30
2018-03-17T18:05:16.655Z,-0.40
2018-03-17T18:07:43.111Z,-0.50
2018-03-17T18:10:09.625Z,-0.50
2018-03-17T18:12:36.321Z,-0.60
2018-03-17T18:15:03.692Z,-0.60
2018-03-17T18:17:30.921Z,-0.60
2018-03-17T18:19:58.181Z,-0.60
2018-03-17T18:22:25.647Z,-0.70
2018-03-17T18:24:52.271Z,-0.70
2018-03-17T18:27:19.566Z,-0.70
2018-03-17T18:29:46.158Z,-0.70
2018-03-17T18:32:13.424Z,-0.80
2018-03-17T18:34:39.912Z,-0.80
2018-03-17T18:37:06.457Z,-0.70
2018-03-17T18:39:33.019Z,-0.70
2018-03-17T18:41:59.763Z,-0.60
2018-03-17T18:44:26.605Z,-0.60
2018-03-17T18:46:53.221Z,-0.60
2018-03-17T18:49:20.619Z,-0.50
2018-03-17T18:51:47.230Z,-0.50
2018-03-17T18:54:14.513Z,-0.60
2018-03-17T18:56:41.312Z,-0.60
2018-03-17T18:59:08.688Z,-0.70
2018-03-17T19:01:35.228Z,-0.70
2018-03-17T19:04:01.808Z,-0.70
2018-03-17T19:06:33.640Z,-0.70
2018-03-17T19:09:01.733Z,-0.70
2018-03-17T19:11:28.263Z,-0.60
2018-03-17T19:13:54.826Z,-0.60
2018-03-17T19:16:22.218Z,-0.60
2018-03-17T19:18:49.068Z,-0.70
2018-03-17T19:21:15.647Z,-0.70
2018-03-17T19:23:42.937Z,-0.70
2018-03-17T19:26:09.596Z,-0.70
2018-03-17T19:28:36.932Z,-0.60
2018-03-17T19:31:03.653Z,-0.70
2018-03-17T19:33:30.327Z,-0.70
2018-03-17T19:35:58.094Z,-0.80
2018-03-17T19:38:24.651Z,-0.80
2018-03-17T19:40:51.193Z,-0.80
2018-03-17T19:43:18.044Z,-0.80
2018-03-17T19:45:45.515Z,-0.80
2018-03-17T19:48:12.799Z,-0.70
2018-03-17T19:50:40.252Z,-0.70
2018-03-17T19:53:06.898Z,-0.70
2018-03-17T19:55:33.533Z,-0.70
2018-03-17T19:58:00.210Z,-0.70
2018-03-17T20:00:26.734Z,-0.80
2018-03-17T20:02:53.259Z,-0.80
2018-03-17T20:05:20.700Z,-0.80
2018-03-17T20:07:48.086Z,-0.80
2018-03-17T20:10:14.689Z,-0.80
2018-03-17T20:12:42.014Z,-0.80
2018-03-17T20:15:08.579Z,-0.80
2018-03-17T20:17:35.059Z,-0.80
2018-03-17T20:20:01.681Z,-0.80
2018-03-17T20:22:28.263Z,-0.70
2018-03-17T20:24:54.737Z,-0.70
2018-03-17T20:27:21.977Z,-0.60
2018-03-17T20:29:49.146Z,-0.60
2018-03-17T20:32:15.593Z,-0.60
2018-03-17T20:34:42.030Z,-0.70
2018-03-17T20:37:08.540Z,-0.70
2018-03-17T20:39:35.675Z,-0.80
2018-03-17T20:42:02.132Z,-0.80
2018-03-17T20:44:29.317Z,-0.70
2018-03-17T20:46:55.887Z,-0.70
2018-03-17T20:49:23.079Z,-0.70
2018-03-17T20:51:49.584Z,-0.70
2018-03-17T20:54:16.117Z,-0.70
2018-03-17T20:56:42.654Z,-0.60
2018-03-17T20:59:09.177Z,-0.60
2018-03-17T21:01:36.422Z,-0.60
2018-03-17T21:04:02.888Z,-0.60
2018-03-17T21:06:30.098Z,-0.70
2018-03-17T21:08:58.045Z,-0.70
2018-03-17T21:11:24.509Z,-0.70
2018-03-17T21:13:51.696Z,-0.70
2018-03-17T21:16:19.034Z,-0.70
2018-03-17T21:18:45.613Z,-0.70
2018-03-17T21:21:12.037Z,-0.70
2018-03-17T21:23:38.449Z,-0.60
2018-03-17T21:26:05.669Z,-0.60
2018-03-17T21:28:39.159Z,-0.60
2018-03-17T21:31:05.611Z,-0.50
2018-03-17T21:33:32.091Z,-0.50
2018-03-17T21:35:59.388Z,-0.50
2018-03-17T21:38:26.765Z,-0.50
2018-03-17T21:40:53.954Z,-0.50
2018-03-17T21:43:20.386Z,-0.50
2018-03-17T21:45:46.888Z,-0.50
2018-03-17T21:48:14.229Z,-0.50
2018-03-17T21:50:40.682Z,-0.50
2018-03-17T21:53:07.306Z,-0.50
2018-03-17T21:55:34.520Z,-0.50
2018-03-17T21:58:00.985Z,-0.50
2018-03-17T22:00:28.416Z,-0.50
2018-03-17T22:02:54.831Z,-0.50
2018-03-17T22:05:21.263Z,-0.80
2018-03-17T22:07:47.820Z,-0.50
2018-03-17T22:10:14.221Z,-0.50
2018-03-17T22:12:40.640Z,-0.60
2018-03-17T22:15:07.796Z,-0.60
2018-03-17T22:17:34.284Z,-0.70
2018-03-17T22:20:01.565Z,-0.60
2018-03-17T22:22:28.742Z,-0.70
2018-03-17T22:24:55.158Z,-0.70
2018-03-17T22:27:22.345Z,-0.60
2018-03-17T22:29:48.829Z,-0.60
2018-03-17T22:32:15.992Z,-0.60
2018-03-17T22:34:42.390Z,-0.60
2018-03-17T22:37:08.871Z,-0.70
2018-03-17T22:39:35.463Z,-0.70
2018-03-17T22:42:02.716Z,-0.80
2018-03-17T22:44:29.951Z,-0.80
2018-03-17T22:46:56.385Z,-0.80
2018-03-17T22:49:22.798Z,-0.80
2018-03-17T22:51:49.449Z,-0.70
2018-03-17T22:54:16.011Z,-0.80
2018-03-17T22:56:42.475Z,-0.70
2018-03-17T22:59:08.921Z,-0.70
2018-03-17T23:01:35.613Z,-0.70
2018-03-17T23:04:02.880Z,-0.80
2018-03-17T23:06:30.447Z,-0.80
2018-03-17T23:08:57.113Z,-0.70
2018-03-17T23:11:23.784Z,-0.70
2018-03-17T23:13:51.074Z,-0.70
2018-03-17T23:16:18.310Z,-0.80
2018-03-17T23:18:44.804Z,-0.80
2018-03-17T23:21:11.442Z,-0.90
2018-03-17T23:23:37.869Z,-1.00
2018-03-17T23:26:04.451Z,-1.20
2018-03-17T23:28:31.680Z,-1.40
2018-03-17T23:30:58.247Z,-1.40
2018-03-17T23:33:25.552Z,-1.50
2018-03-17T23:35:52.061Z,-1.50
2018-03-17T23:38:18.486Z,-1.50
2018-03-17T23:40:45.099Z,-1.60
2018-03-17T23:43:11.610Z,-1.60
2018-03-17T23:45:38.034Z,-1.60
2018-03-17T23:48:04.472Z,-1.70
2018-03-17T23:50:31.030Z,-1.60
2018-03-17T23:52:57.507Z,-1.50
2018-03-17T23:55:24.098Z,-1.60
2018-03-17T23:57:51.349Z,-1.50
